createdAt,value
2022-10-17T03:55:12.541Z,2.95
2022-10-17T03:58:15.054Z,4.25
2022-10-17T04:01:18.562Z,2.45
2022-10-17T04:04:21.737Z,2.55
2022-10-17T04:07:23.887Z,2.40
2022-10-17T04:10:26.213Z,1.77
2022-10-17T04:13:28.967Z,3.30
2022-10-17T04:16:31.700Z,2.00
2022-10-17T04:19:34.195Z,3.10
2022-10-17T04:22:37.048Z,1.98
2022-10-17T04:25:39.361Z,2.87
2022-10-17T04:28:41.766Z,2.28
2022-10-17T04:31:44.389Z,2.55
2022-10-17T04:34:50.425Z,2.53
2022-10-17T04:37:55.234Z,2.53
2022-10-17T04:41:03.205Z,2.10
2022-10-17T04:44:05.807Z,2.15
2022-10-17T04:47:08.512Z,3.00
2022-10-17T04:50:10.722Z,2.55
2022-10-17T04:53:14.657Z,2.45
2022-10-17T04:56:22.153Z,2.08
2022-10-17T04:59:24.522Z,3.80
2022-10-17T05:02:28.086Z,3.85
2022-10-17T05:05:31.487Z,1.98
2022-10-17T05:08:34.243Z,2.92
2022-10-17T05:11:36.893Z,2.30
2022-10-17T05:14:39.811Z,2.35
2022-10-17T05:17:42.379Z,2.53
2022-10-17T05:20:46.050Z,2.85
2022-10-17T05:23:48.429Z,2.17
2022-10-17T05:26:51.881Z,3.40
2022-10-17T05:29:54.609Z,4.00
2022-10-17T05:32:58.692Z,3.92
2022-10-17T05:36:02.380Z,2.37
2022-10-17T05:39:04.730Z,2.45
2022-10-17T05:42:07.589Z,2.70
2022-10-17T05:45:10.638Z,2.87
2022-10-17T05:48:12.984Z,2.08
2022-10-17T05:51:15.054Z,2.15
2022-10-17T05:54:19.332Z,3.80
2022-10-17T05:57:21.441Z,3.12
2022-10-17T06:00:24.226Z,3.47
2022-10-17T06:03:26.866Z,3.22
2022-10-17T06:06:29.148Z,3.17
2022-10-17T06:09:31.605Z,3.87
2022-10-17T06:12:33.905Z,2.65
2022-10-17T06:15:36.485Z,4.05
2022-10-17T06:18:39.228Z,3.97
2022-10-17T06:21:41.661Z,3.95
2022-10-17T06:24:44.259Z,3.30
2022-10-17T06:27:47.339Z,3.03
2022-10-17T06:30:49.433Z,4.72
2022-10-17T06:33:51.861Z,2.53
2022-10-17T06:36:54.029Z,3.70
2022-10-17T06:39:56.509Z,3.60
2022-10-17T06:42:58.749Z,3.40
2022-10-17T06:46:01.075Z,3.35
2022-10-17T06:49:04.832Z,3.92
2022-10-17T06:52:10.265Z,3.53
2022-10-17T06:55:14.880Z,3.70
2022-10-17T06:58:19.215Z,4.28
2022-10-17T07:01:22.613Z,3.28
2022-10-17T07:04:25.720Z,4.43
2022-10-17T07:07:31.626Z,4.87
2022-10-17T07:10:38.280Z,4.22
2022-10-17T07:13:40.811Z,2.95
2022-10-17T07:16:43.749Z,3.83
2022-10-17T07:19:49.536Z,2.60
2022-10-17T07:22:51.909Z,4.32
2022-10-17T07:25:59.874Z,2.90
2022-10-17T07:29:02.358Z,4.15
2022-10-17T07:32:08.587Z,3.50
2022-10-17T07:35:12.023Z,3.33
2022-10-17T07:38:14.742Z,3.65
2022-10-17T07:41:20.937Z,2.70
2022-10-17T07:44:24.771Z,3.35
2022-10-17T07:47:27.575Z,3.33
2022-10-17T07:50:31.666Z,3.45
2022-10-17T07:53:38.828Z,3.67
2022-10-17T07:56:40.937Z,3.55
2022-10-17T07:59:43.229Z,4.15
2022-10-17T08:02:45.639Z,2.78
2022-10-17T08:05:48.097Z,2.80
2022-10-17T08:08:50.295Z,2.85
2022-10-17T08:11:52.756Z,4.20
2022-10-17T08:14:54.816Z,3.33
2022-10-17T08:17:57.122Z,3.58
2022-10-17T08:21:00.909Z,2.97
2022-10-17T08:24:03.566Z,3.17
2022-10-17T08:27:11.218Z,3.75
2022-10-17T08:30:13.864Z,3.97
2022-10-17T08:33:15.951Z,4.37
2022-10-17T08:36:21.471Z,4.05
2022-10-17T08:39:23.501Z,3.53
2022-10-17T08:42:53.294Z,4.90
2022-10-17T08:46:07.936Z,2.80
2022-10-17T08:57:16.039Z,3.12
2022-10-17T09:24:38.068Z,2.42
2022-10-17T09:27:48.743Z,3.08
2022-10-17T09:30:59.443Z,3.12
2022-10-17T09:34:02.976Z,3.08
2022-10-17T09:37:13.035Z,3.80
2022-10-17T09:40:26.741Z,3.03
2022-10-17T09:43:29.081Z,3.78
2022-10-17T09:46:39.076Z,2.37
2022-10-17T09:49:43.994Z,2.55
2022-10-17T09:52:48.677Z,2.97
2022-10-17T09:56:02.749Z,2.75
2022-10-17T09:59:05.063Z,3.00
2022-10-17T10:02:10.199Z,1.90
2022-10-17T10:05:20.986Z,2.28
2022-10-17T10:08:26.296Z,2.10
2022-10-17T10:11:49.178Z,2.70
2022-10-17T10:14:54.698Z,2.42
2022-10-17T10:17:57.652Z,2.12
2022-10-17T10:21:04.367Z,1.52
2022-10-17T10:24:13.271Z,2.03
2022-10-17T10:27:17.611Z,2.03
2022-10-17T10:30:25.863Z,1.55
2022-10-17T10:33:30.772Z,2.20
2022-10-17T10:36:49.890Z,2.30
2022-10-17T10:39:54.252Z,2.17
2022-10-17T10:43:03.966Z,1.60
2022-10-17T10:46:36.393Z,2.62
2022-10-17T10:49:39.530Z,1.62
2022-10-17T10:52:50.178Z,2.15
2022-10-17T10:55:58.514Z,2.42
2022-10-17T10:59:09.437Z,1.77
2022-10-17T11:02:20.237Z,1.40
2022-10-17T11:05:40.254Z,2.03
2022-10-17T11:09:32.949Z,1.95
2022-10-17T11:12:48.532Z,2.45
2022-10-17T11:16:00.954Z,3.65
2022-10-17T11:19:14.504Z,1.80
2022-10-17T11:22:29.127Z,2.08
2022-10-17T11:25:38.012Z,1.65
2022-10-17T11:28:40.745Z,2.00
2022-10-17T11:31:50.349Z,1.95
2022-10-17T11:35:04.141Z,1.65
2022-10-17T11:38:17.432Z,2.08
2022-10-17T11:41:31.343Z,2.05
2022-10-17T11:44:38.900Z,2.08
2022-10-17T11:47:47.502Z,1.80
2022-10-17T11:54:29.436Z,2.30
2022-10-17T11:57:56.620Z,2.55
2022-10-17T12:01:17.720Z,1.70
2022-10-17T12:04:38.121Z,1.65
2022-10-17T12:07:54.907Z,1.73
2022-10-17T12:11:01.245Z,1.25
2022-10-17T12:14:23.686Z,0.97
2022-10-17T12:17:33.949Z,1.58
2022-10-17T12:20:37.997Z,1.42
2022-10-17T12:23:41.173Z,2.17
2022-10-17T12:26:43.252Z,1.50
2022-10-17T12:29:45.578Z,2.08
2022-10-17T12:33:25.611Z,2.15
2022-10-17T12:36:30.722Z,2.10
2022-10-17T12:39:38.673Z,1.65
2022-10-17T12:42:49.665Z,1.62
2022-10-17T12:45:56.047Z,1.55
2022-10-17T12:49:04.428Z,2.20
2022-10-17T12:52:17.201Z,1.52
2022-10-17T12:55:23.554Z,2.03
2022-10-17T12:58:25.741Z,5.60
2022-10-17T13:01:31.793Z,4.43
2022-10-17T13:04:36.701Z,2.12
2022-10-17T13:07:43.542Z,1.92
2022-10-17T13:10:51.661Z,1.85
2022-10-17T13:13:58.905Z,1.12
2022-10-17T13:17:03.856Z,1.92
2022-10-17T13:20:27.682Z,1.65
2022-10-17T13:23:35.077Z,1.80
2022-10-17T13:26:37.373Z,1.30
2022-10-17T13:29:44.368Z,1.65
2022-10-17T13:35:59.898Z,1.27
2022-10-17T13:39:13.653Z,1.05
2022-10-17T13:42:26.386Z,1.75
2022-10-17T13:45:30.317Z,1.65
2022-10-17T13:48:36.563Z,1.45
2022-10-17T13:51:44.450Z,1.83
2022-10-17T13:54:49.093Z,1.70
2022-10-17T13:57:52.441Z,1.73
2022-10-17T14:00:54.820Z,1.52
2022-10-17T14:04:08.491Z,1.70
2022-10-17T14:07:26.348Z,1.48
2022-10-17T14:13:35.478Z,1.58
2022-10-17T14:16:41.333Z,1.67
2022-10-17T14:19:46.037Z,2.17
2022-10-17T14:23:17.875Z,2.75
2022-10-17T14:26:21.857Z,1.70
2022-10-17T14:29:33.216Z,1.67
2022-10-17T14:32:37.451Z,2.58
2022-10-17T14:35:41.853Z,1.58
2022-10-17T14:38:52.452Z,2.20
2022-10-17T14:41:55.321Z,1.80
2022-10-17T14:45:11.502Z,1.40
2022-10-17T14:48:20.323Z,1.85
2022-10-17T14:51:22.835Z,1.52
2022-10-17T14:54:29.082Z,1.73
2022-10-17T14:57:34.383Z,1.42
2022-10-17T15:00:36.680Z,2.35
2022-10-17T15:03:38.786Z,1.65
2022-10-17T15:06:41.233Z,2.03
2022-10-17T15:09:44.853Z,1.48
2022-10-17T15:12:56.197Z,1.95
2022-10-17T15:16:02.079Z,1.70
2022-10-17T15:19:04.411Z,1.70
2022-10-17T15:22:06.510Z,1.75
2022-10-17T15:25:09.290Z,1.80
2022-10-17T15:28:12.957Z,1.65
2022-10-17T15:31:18.470Z,2.08
2022-10-17T15:34:20.505Z,1.60
2022-10-17T15:37:25.002Z,1.90
2022-10-17T15:40:29.130Z,1.65
2022-10-17T15:43:31.442Z,1.75
2022-10-17T15:46:35.428Z,1.20
2022-10-17T15:49:37.747Z,1.77
